createdAt,value
2023-01-19T00:00:56.858Z,99.90
2023-01-19T00:03:24.116Z,99.90
2023-01-19T00:05:51.796Z,99.90
2023-01-19T00:08:19.243Z,99.90
2023-01-19T00:10:48.336Z,99.90
2023-01-19T00:13:16.045Z,99.90
2023-01-19T00:15:43.548Z,99.90
2023-01-19T00:18:11.285Z,99.90
2023-01-19T00:20:39.543Z,99.90
2023-01-19T00:23:08.191Z,99.90
2023-01-19T00:25:36.247Z,99.90
2023-01-19T00:28:03.653Z,99.90
2023-01-19T00:30:30.971Z,99.90
2023-01-19T00:32:58.826Z,99.90
2023-01-19T00:35:26.615Z,99.90
2023-01-19T00:37:53.895Z,99.90
2023-01-19T00:40:21.288Z,99.90
2023-01-19T00:42:48.658Z,99.90
2023-01-19T00:45:19.959Z,99.90
2023-01-19T00:47:47.906Z,99.90
2023-01-19T00:50:16.856Z,99.90
2023-01-19T00:52:44.468Z,99.90
2023-01-19T00:55:13.262Z,99.90
2023-01-19T00:57:40.790Z,99.90
2023-01-19T01:00:11.766Z,99.90
2023-01-19T01:02:40.044Z,99.90
2023-01-19T01:05:07.976Z,99.90
2023-01-19T01:07:40.587Z,99.90
2023-01-19T01:10:09.332Z,99.90
2023-01-19T01:12:37.476Z,99.90
2023-01-19T01:15:09.012Z,99.90
2023-01-19T01:17:36.509Z,99.90
2023-01-19T01:20:04.873Z,99.90
2023-01-19T01:22:32.219Z,99.90
2023-01-19T01:24:59.510Z,99.90
2023-01-19T01:27:26.828Z,99.90
2023-01-19T01:29:54.110Z,99.90
2023-01-19T01:32:21.395Z,99.90
2023-01-19T01:34:48.763Z,99.90
2023-01-19T01:37:16.059Z,99.90
2023-01-19T01:39:43.351Z,99.90
2023-01-19T01:42:18.820Z,99.90
2023-01-19T01:44:54.320Z,99.90
2023-01-19T01:47:31.546Z,99.90
2023-01-19T01:50:05.311Z,99.90
2023-01-19T01:52:33.845Z,99.90
2023-01-19T01:55:01.311Z,99.90
2023-01-19T01:57:28.755Z,99.90
2023-01-19T01:59:56.172Z,99.90
2023-01-19T02:02:43.465Z,99.90
2023-01-19T02:05:32.611Z,99.90
2023-01-19T02:08:31.320Z,99.90
2023-01-19T02:11:17.716Z,99.90
2023-01-19T02:13:45.133Z,99.90
2023-01-19T02:16:13.463Z,99.90
2023-01-19T02:18:41.039Z,99.90
2023-01-19T02:21:19.132Z,99.90
2023-01-19T02:23:50.491Z,99.90
2023-01-19T02:26:20.441Z,99.90
2023-01-19T02:28:57.507Z,99.90
2023-01-19T02:31:25.131Z,99.90
2023-01-19T02:33:52.766Z,99.90
2023-01-19T02:36:23.320Z,99.90
2023-01-19T02:38:50.645Z,99.90
2023-01-19T02:41:21.038Z,99.90
2023-01-19T02:43:48.676Z,99.90
2023-01-19T02:46:16.109Z,99.90
2023-01-19T02:48:43.963Z,99.90
2023-01-19T02:51:14.682Z,99.90
2023-01-19T02:54:13.658Z,99.90
2023-01-19T02:57:39.931Z,99.90
2023-01-19T03:00:21.658Z,99.90
2023-01-19T03:03:02.204Z,99.90
2023-01-19T03:05:42.180Z,99.90
2023-01-19T03:08:40.923Z,99.90
2023-01-19T03:11:12.368Z,99.90
2023-01-19T03:14:01.904Z,99.90
2023-01-19T03:16:44.178Z,99.90
2023-01-19T03:19:35.776Z,99.90
2023-01-19T03:22:11.414Z,99.90
2023-01-19T03:24:42.077Z,99.90
2023-01-19T03:27:26.457Z,99.90
2023-01-19T03:29:55.335Z,99.90
2023-01-19T03:32:25.530Z,99.90
2023-01-19T03:34:52.983Z,99.90
2023-01-19T03:37:20.306Z,99.90
2023-01-19T03:39:47.603Z,99.90
2023-01-19T03:42:15.409Z,99.90
2023-01-19T03:44:42.871Z,99.90
2023-01-19T03:47:11.017Z,99.90
2023-01-19T03:49:38.359Z,99.90
2023-01-19T03:52:06.015Z,99.90
2023-01-19T03:54:33.405Z,99.90
2023-01-19T03:57:00.711Z,99.90
2023-01-19T03:59:28.035Z,99.90
2023-01-19T04:01:55.483Z,99.90
2023-01-19T04:04:22.765Z,99.90
2023-01-19T04:06:50.103Z,99.90
2023-01-19T04:09:19.272Z,99.90
2023-01-19T04:11:47.343Z,99.90
2023-01-19T04:14:14.639Z,99.90
2023-01-19T04:16:41.942Z,99.90
2023-01-19T04:19:09.237Z,99.90
2023-01-19T04:21:36.789Z,99.90
2023-01-19T04:24:04.158Z,99.90
2023-01-19T04:26:31.480Z,99.90
2023-01-19T04:28:58.866Z,99.90
2023-01-19T04:31:26.282Z,99.90
2023-01-19T04:33:53.638Z,99.90
2023-01-19T04:36:20.977Z,99.90
2023-01-19T04:38:48.879Z,99.90
2023-01-19T04:41:16.171Z,99.90
2023-01-19T04:43:43.475Z,99.90
2023-01-19T04:46:10.852Z,99.90
2023-01-19T04:48:38.893Z,99.90
2023-01-19T04:51:07.401Z,99.90
2023-01-19T04:53:34.814Z,99.90
2023-01-19T04:56:02.128Z,99.90
2023-01-19T04:58:29.449Z,99.90
2023-01-19T05:00:56.866Z,99.90
2023-01-19T05:03:25.796Z,99.90
2023-01-19T05:05:53.969Z,99.90
2023-01-19T05:08:21.584Z,99.90
2023-01-19T05:10:48.991Z,99.90
2023-01-19T05:13:16.315Z,99.90
2023-01-19T05:15:43.716Z,99.90
2023-01-19T05:18:11.262Z,99.90
2023-01-19T05:20:39.634Z,99.90
2023-01-19T05:23:07.359Z,99.90
2023-01-19T05:25:34.681Z,99.90
2023-01-19T05:28:02.880Z,99.90
2023-01-19T05:30:30.222Z,99.90
2023-01-19T05:32:57.615Z,99.90
2023-01-19T05:35:35.414Z,99.90
2023-01-19T05:38:03.469Z,99.90
2023-01-19T05:40:30.846Z,99.90
2023-01-19T05:43:01.882Z,99.90
2023-01-19T05:45:29.399Z,99.90
2023-01-19T05:47:56.914Z,99.90
2023-01-19T05:50:24.320Z,99.90
2023-01-19T05:52:54.758Z,99.90
2023-01-19T05:55:22.134Z,99.90
2023-01-19T05:57:49.555Z,99.90
2023-01-19T06:00:17.115Z,99.90
2023-01-19T06:02:44.591Z,99.90
2023-01-19T06:05:12.461Z,99.90
2023-01-19T06:07:39.820Z,99.90
2023-01-19T06:10:07.684Z,99.90
2023-01-19T06:12:35.053Z,99.90
2023-01-19T06:15:02.386Z,99.90
2023-01-19T06:17:31.567Z,99.90
2023-01-19T06:19:58.908Z,99.90
2023-01-19T06:22:26.210Z,99.90
2023-01-19T06:24:53.569Z,99.90
2023-01-19T06:27:20.923Z,99.90
2023-01-19T06:29:48.519Z,99.90
2023-01-19T06:32:15.818Z,99.90
2023-01-19T06:34:43.844Z,99.90
2023-01-19T06:37:11.800Z,99.90
2023-01-19T06:39:41.074Z,99.90
2023-01-19T06:42:08.821Z,99.90
2023-01-19T06:44:36.218Z,99.90
2023-01-19T06:47:15.433Z,99.90
2023-01-19T06:49:43.661Z,99.90
2023-01-19T06:52:12.297Z,99.90
2023-01-19T06:54:39.834Z,99.90
2023-01-19T06:57:07.137Z,99.90
2023-01-19T06:59:34.455Z,99.90
2023-01-19T07:02:26.982Z,99.90
2023-01-19T07:04:49.308Z,99.90
2023-01-19T07:07:17.056Z,99.90
2023-01-19T07:09:44.399Z,99.90
2023-01-19T07:12:11.697Z,99.90
2023-01-19T07:14:39.240Z,99.90
2023-01-19T07:17:06.955Z,99.90
2023-01-19T07:19:35.316Z,99.90
2023-01-19T07:22:03.247Z,99.90
2023-01-19T07:24:30.749Z,99.90
2023-01-19T07:26:58.580Z,99.90
2023-01-19T07:29:26.055Z,99.90
2023-01-19T07:31:54.799Z,99.90
2023-01-19T07:34:22.257Z,99.90
2023-01-19T07:36:49.635Z,99.90
2023-01-19T07:39:17.096Z,99.90
2023-01-19T07:41:44.436Z,99.90
2023-01-19T07:44:11.782Z,99.90
2023-01-19T07:46:39.174Z,99.90
2023-01-19T07:49:06.478Z,99.90
2023-01-19T07:51:33.758Z,99.90
2023-01-19T07:54:01.734Z,99.90
2023-01-19T07:56:32.689Z,99.90
2023-01-19T07:59:00.203Z,99.90
2023-01-19T08:01:27.587Z,99.90
2023-01-19T08:03:55.067Z,99.90
2023-01-19T08:06:23.700Z,99.90
2023-01-19T08:08:51.179Z,99.90
2023-01-19T08:11:18.526Z,99.90
2023-01-19T08:13:45.892Z,99.90
2023-01-19T08:16:13.242Z,99.90
2023-01-19T08:18:40.516Z,99.90
2023-01-19T08:21:08.015Z,99.90
2023-01-19T08:23:35.380Z,99.90
2023-01-19T08:26:03.011Z,99.90
2023-01-19T08:28:30.310Z,99.90
2023-01-19T08:30:57.981Z,99.90
2023-01-19T08:33:25.453Z,99.90
2023-01-19T08:35:53.424Z,99.90
2023-01-19T08:38:20.750Z,99.90
2023-01-19T08:40:48.911Z,99.90
2023-01-19T08:43:16.868Z,99.90
2023-01-19T08:45:49.160Z,99.90
2023-01-19T08:48:18.691Z,99.90
2023-01-19T08:50:46.860Z,99.90
2023-01-19T08:53:14.261Z,99.90
2023-01-19T08:55:41.616Z,99.90
2023-01-19T08:58:09.127Z,99.90
2023-01-19T09:00:40.249Z,99.90
2023-01-19T09:03:08.773Z,99.90
2023-01-19T09:05:38.753Z,99.90
2023-01-19T09:08:10.773Z,99.90
2023-01-19T09:10:39.096Z,99.90
2023-01-19T09:13:08.464Z,99.90
2023-01-19T09:15:37.759Z,99.80
2023-01-19T09:18:07.096Z,99.90
2023-01-19T09:20:36.180Z,99.80
2023-01-19T09:23:03.620Z,99.40
2023-01-19T09:25:31.239Z,99.40
2023-01-19T09:28:02.796Z,98.80
2023-01-19T09:30:30.411Z,99.20
2023-01-19T09:33:02.643Z,98.70
2023-01-19T09:35:31.549Z,99.00
2023-01-19T09:37:59.383Z,98.90
2023-01-19T09:40:27.220Z,99.50
2023-01-19T09:43:11.896Z,99.40
2023-01-19T09:45:50.841Z,99.50
2023-01-19T09:48:52.931Z,98.30
2023-01-19T09:51:28.250Z,98.90
2023-01-19T09:54:17.651Z,98.90
2023-01-19T09:56:46.151Z,98.40
2023-01-19T09:59:26.427Z,98.50
2023-01-19T10:01:58.862Z,98.70
2023-01-19T10:04:41.041Z,98.60
2023-01-19T10:07:20.761Z,98.30
2023-01-19T10:10:09.967Z,98.00
2023-01-19T10:12:52.157Z,98.20
2023-01-19T10:15:31.876Z,98.00
2023-01-19T10:18:35.784Z,97.20
2023-01-19T10:21:05.639Z,96.90
2023-01-19T10:23:46.312Z,97.20
2023-01-19T10:26:29.708Z,97.40
2023-01-19T10:29:01.613Z,97.10
2023-01-19T10:31:29.101Z,96.90
2023-01-19T10:33:56.550Z,96.50
2023-01-19T10:36:50.585Z,96.30
2023-01-19T10:39:18.759Z,95.90
2023-01-19T10:41:53.218Z,96.10
2023-01-19T10:44:28.518Z,95.40
2023-01-19T10:46:57.472Z,95.60
2023-01-19T10:49:29.167Z,94.70
2023-01-19T10:51:57.554Z,94.70
2023-01-19T10:54:25.714Z,94.80
2023-01-19T10:56:58.312Z,94.50
2023-01-19T10:59:31.408Z,95.20
2023-01-19T11:02:21.770Z,94.30
2023-01-19T11:04:51.328Z,94.10
2023-01-19T11:07:33.806Z,94.10
2023-01-19T11:10:16.396Z,94.40
2023-01-19T11:12:56.688Z,94.50
2023-01-19T11:15:33.047Z,94.60
2023-01-19T11:18:01.251Z,94.80
2023-01-19T11:20:51.189Z,93.70
2023-01-19T11:23:18.462Z,93.30
2023-01-19T11:25:46.967Z,92.80
2023-01-19T11:28:37.007Z,94.10
2023-01-19T11:31:18.141Z,93.90
2023-01-19T11:33:45.502Z,92.90
2023-01-19T11:36:21.461Z,92.90
2023-01-19T11:38:53.949Z,93.60
2023-01-19T11:41:37.304Z,93.10
2023-01-19T11:44:26.156Z,92.60
2023-01-19T11:46:58.761Z,91.90
2023-01-19T11:49:46.802Z,92.10
2023-01-19T11:52:32.675Z,91.70
2023-01-19T11:55:14.721Z,91.40
2023-01-19T11:57:49.780Z,91.80
2023-01-19T12:00:46.000Z,92.00
2023-01-19T12:03:33.605Z,91.60
2023-01-19T12:06:04.614Z,91.40
2023-01-19T12:08:37.853Z,90.80
2023-01-19T12:11:05.718Z,90.70
2023-01-19T12:13:33.442Z,90.60
2023-01-19T12:16:08.930Z,91.20
2023-01-19T12:18:47.700Z,90.50
2023-01-19T12:21:15.085Z,90.70
2023-01-19T12:23:51.192Z,90.80
2023-01-19T12:26:40.864Z,90.30
2023-01-19T12:29:18.603Z,89.60
2023-01-19T12:31:46.091Z,90.10
2023-01-19T12:34:46.800Z,90.40
2023-01-19T12:37:32.546Z,89.80
2023-01-19T12:40:01.436Z,89.20
2023-01-19T12:42:28.832Z,89.30
2023-01-19T12:45:12.961Z,89.80
2023-01-19T12:47:40.332Z,89.60
2023-01-19T12:50:11.712Z,89.10
2023-01-19T12:52:49.421Z,89.40
2023-01-19T12:55:33.283Z,89.60
2023-01-19T12:58:12.872Z,90.00
2023-01-19T13:00:41.172Z,90.50
2023-01-19T13:03:17.833Z,90.00
2023-01-19T13:05:48.519Z,90.30
2023-01-19T13:08:17.382Z,90.20
2023-01-19T13:11:10.390Z,90.80
2023-01-19T13:13:42.712Z,90.00
2023-01-19T13:16:19.794Z,89.20
2023-01-19T13:18:54.138Z,88.30
2023-01-19T13:21:30.611Z,89.10
2023-01-19T13:23:59.301Z,88.50
2023-01-19T13:26:32.499Z,89.00
2023-01-19T13:29:07.490Z,90.20
2023-01-19T13:31:35.491Z,90.30
2023-01-19T13:34:03.084Z,90.30
2023-01-19T13:36:35.636Z,90.50
2023-01-19T13:39:08.065Z,89.40
2023-01-19T13:41:36.961Z,90.20
2023-01-19T13:44:23.167Z,90.10
2023-01-19T13:46:51.260Z,90.50
2023-01-19T13:49:25.780Z,90.10
2023-01-19T13:52:14.373Z,88.40
2023-01-19T13:54:55.374Z,89.00
2023-01-19T13:57:23.081Z,88.60
2023-01-19T14:00:09.261Z,89.60
2023-01-19T14:02:39.879Z,90.00
2023-01-19T14:05:25.198Z,89.90
2023-01-19T14:08:13.820Z,89.20
2023-01-19T14:10:47.745Z,88.20
2023-01-19T14:13:29.440Z,86.40
2023-01-19T14:15:58.962Z,85.50
2023-01-19T14:18:30.727Z,86.80
2023-01-19T14:21:03.672Z,86.70
2023-01-19T14:23:38.308Z,85.90
2023-01-19T14:26:06.496Z,85.00
2023-01-19T14:28:36.211Z,85.40
2023-01-19T14:31:18.382Z,84.40
2023-01-19T14:33:47.108Z,83.10
2023-01-19T14:36:17.471Z,83.60
2023-01-19T14:38:49.769Z,83.40
2023-01-19T14:41:33.008Z,82.60
2023-01-19T14:44:00.383Z,83.50
2023-01-19T14:46:27.805Z,85.00
2023-01-19T14:49:02.308Z,85.00
2023-01-19T14:51:29.675Z,84.00
2023-01-19T14:53:58.892Z,84.60
2023-01-19T14:56:31.275Z,84.90
2023-01-19T14:58:59.487Z,85.30
2023-01-19T15:01:31.026Z,86.50
2023-01-19T15:03:58.721Z,85.70
2023-01-19T15:06:26.211Z,84.20
2023-01-19T15:08:53.663Z,84.10
2023-01-19T15:11:29.132Z,85.20
2023-01-19T15:13:56.499Z,86.70
2023-01-19T15:16:24.019Z,84.40
2023-01-19T15:18:51.589Z,83.90
2023-01-19T15:21:21.602Z,84.10
2023-01-19T15:23:49.405Z,85.10
2023-01-19T15:26:18.144Z,86.10
2023-01-19T15:28:45.824Z,84.50
2023-01-19T15:31:17.377Z,84.00
2023-01-19T15:33:44.782Z,85.80
2023-01-19T15:36:13.581Z,84.80
2023-01-19T15:38:40.925Z,85.00
2023-01-19T15:41:27.709Z,85.80
2023-01-19T15:43:55.253Z,83.40
2023-01-19T15:46:23.404Z,83.20
2023-01-19T15:48:50.887Z,83.60
2023-01-19T15:51:19.888Z,83.50
2023-01-19T15:53:47.491Z,82.90
2023-01-19T15:56:25.028Z,83.60
2023-01-19T15:58:52.783Z,84.30
2023-01-19T16:01:24.234Z,84.50
2023-01-19T16:03:51.689Z,86.30
2023-01-19T16:06:19.069Z,85.60
2023-01-19T16:08:46.459Z,86.80
2023-01-19T16:11:15.017Z,85.50
2023-01-19T16:13:45.530Z,87.20
2023-01-19T16:16:15.922Z,88.00
2023-01-19T16:18:43.387Z,86.90
2023-01-19T16:21:10.773Z,87.10
2023-01-19T16:23:38.204Z,87.60
2023-01-19T16:26:07.960Z,87.60
2023-01-19T16:28:36.071Z,87.30
2023-01-19T16:31:03.827Z,88.50
2023-01-19T16:33:31.195Z,88.40
2023-01-19T16:35:58.989Z,87.10
2023-01-19T16:38:26.365Z,86.90
2023-01-19T16:40:53.659Z,87.90
2023-01-19T16:43:20.962Z,87.30
2023-01-19T16:45:59.188Z,88.00
2023-01-19T16:48:26.877Z,87.80
2023-01-19T16:51:02.214Z,88.10
2023-01-19T16:53:29.753Z,88.70
2023-01-19T16:55:57.120Z,87.50
2023-01-19T16:58:24.507Z,87.40
2023-01-19T17:00:51.946Z,87.00
2023-01-19T17:03:19.445Z,87.30
2023-01-19T17:05:50.594Z,87.10
2023-01-19T17:08:19.368Z,88.50
2023-01-19T17:10:47.709Z,88.20
2023-01-19T17:13:15.071Z,89.10
2023-01-19T17:15:43.217Z,90.00
2023-01-19T17:18:10.692Z,89.10
2023-01-19T17:20:38.024Z,88.50
2023-01-19T17:23:05.461Z,89.20
2023-01-19T17:25:32.800Z,88.90
2023-01-19T17:28:01.282Z,89.30
2023-01-19T17:30:28.727Z,88.90
2023-01-19T17:32:56.135Z,89.50
2023-01-19T17:35:23.480Z,89.60
2023-01-19T17:37:54.461Z,89.00
2023-01-19T17:40:21.794Z,89.30
2023-01-19T17:42:49.120Z,87.80
2023-01-19T17:45:16.566Z,88.20
2023-01-19T17:47:43.886Z,88.70
2023-01-19T17:50:11.562Z,88.60
2023-01-19T17:52:39.082Z,89.30
2023-01-19T17:55:06.799Z,89.40
2023-01-19T17:57:34.257Z,89.60
2023-01-19T18:00:02.085Z,88.00
2023-01-19T18:02:40.220Z,88.50
2023-01-19T18:05:12.581Z,89.60
2023-01-19T18:07:40.191Z,90.00
2023-01-19T18:10:08.359Z,89.80
2023-01-19T18:12:35.741Z,88.70
2023-01-19T18:15:05.058Z,89.30
2023-01-19T18:17:32.450Z,89.00
2023-01-19T18:19:59.872Z,88.30
2023-01-19T18:22:27.202Z,89.30
2023-01-19T18:24:54.545Z,88.80
2023-01-19T18:27:22.001Z,88.80
2023-01-19T18:29:49.302Z,89.40
2023-01-19T18:32:16.714Z,89.30
2023-01-19T18:34:44.022Z,88.10
2023-01-19T18:37:11.342Z,89.00
2023-01-19T18:39:38.663Z,89.30
2023-01-19T18:42:06.100Z,89.80
2023-01-19T18:44:33.393Z,89.40
2023-01-19T18:47:00.952Z,88.50
2023-01-19T18:49:28.256Z,88.90
2023-01-19T18:51:56.069Z,89.20
2023-01-19T18:54:23.358Z,89.00
2023-01-19T18:56:50.829Z,89.50
2023-01-19T18:59:18.292Z,89.80
2023-01-19T19:01:45.692Z,89.80
2023-01-19T19:04:13.059Z,89.90
2023-01-19T19:06:40.433Z,89.80
2023-01-19T19:09:07.815Z,89.80
2023-01-19T19:11:35.296Z,90.40
2023-01-19T19:14:02.737Z,90.10
2023-01-19T19:16:30.254Z,89.60
2023-01-19T19:18:57.756Z,89.60
2023-01-19T19:21:25.577Z,90.00
2023-01-19T19:23:57.465Z,90.10
2023-01-19T19:26:25.522Z,89.90
2023-01-19T19:28:52.831Z,89.80
2023-01-19T19:31:21.218Z,89.20
2023-01-19T19:33:48.976Z,89.20
2023-01-19T19:36:16.495Z,89.40
2023-01-19T19:38:44.877Z,90.00
2023-01-19T19:41:12.963Z,90.20
2023-01-19T19:43:40.648Z,90.30
2023-01-19T19:46:09.605Z,89.50
2023-01-19T19:48:39.136Z,89.90
2023-01-19T19:51:22.663Z,90.20
2023-01-19T19:53:51.838Z,90.40
2023-01-19T19:56:21.229Z,89.40
2023-01-19T19:58:49.175Z,89.60
2023-01-19T20:01:18.407Z,89.70
2023-01-19T20:03:45.881Z,89.40
2023-01-19T20:06:14.929Z,89.80
2023-01-19T20:08:42.266Z,90.30
2023-01-19T20:11:14.281Z,90.70
2023-01-19T20:13:42.471Z,90.60
2023-01-19T20:16:14.290Z,90.30
2023-01-19T20:18:42.710Z,90.10
2023-01-19T20:21:20.852Z,89.80
2023-01-19T20:23:48.645Z,89.70
2023-01-19T20:26:17.000Z,90.10
2023-01-19T20:28:44.430Z,89.50
2023-01-19T20:31:15.851Z,89.50
2023-01-19T20:33:43.355Z,90.00
2023-01-19T20:36:11.052Z,89.70
2023-01-19T20:38:38.888Z,89.40
2023-01-19T20:41:07.172Z,89.00
2023-01-19T20:43:34.761Z,89.30
2023-01-19T20:46:02.259Z,89.90
2023-01-19T20:48:30.183Z,89.60
2023-01-19T20:51:05.786Z,90.00
2023-01-19T20:53:33.172Z,90.10
2023-01-19T20:56:20.850Z,90.40
2023-01-19T20:58:48.178Z,90.50
2023-01-19T21:01:17.867Z,90.40
2023-01-19T21:03:45.520Z,90.10
2023-01-19T21:06:13.086Z,90.40
2023-01-19T21:08:40.556Z,90.80
2023-01-19T21:11:07.981Z,90.70
2023-01-19T21:13:35.540Z,90.60
2023-01-19T21:16:02.954Z,90.70
2023-01-19T21:18:30.305Z,90.50
2023-01-19T21:20:57.848Z,90.60
2023-01-19T21:23:28.765Z,90.70
2023-01-19T21:25:57.675Z,91.10
2023-01-19T21:28:25.438Z,91.00
2023-01-19T21:30:53.403Z,91.30
2023-01-19T21:33:20.931Z,91.60
2023-01-19T21:35:51.359Z,91.30
2023-01-19T21:38:18.768Z,92.00
2023-01-19T21:40:46.296Z,91.50
2023-01-19T21:43:13.762Z,91.00
2023-01-19T21:45:43.096Z,91.20
2023-01-19T21:48:10.630Z,91.20
2023-01-19T21:50:38.214Z,91.20
2023-01-19T21:53:11.399Z,91.20
2023-01-19T21:55:40.749Z,90.70
2023-01-19T21:58:08.294Z,90.50
2023-01-19T22:00:35.594Z,90.80
2023-01-19T22:03:04.490Z,91.00
2023-01-19T22:05:36.743Z,91.10
2023-01-19T22:08:06.348Z,91.50
2023-01-19T22:10:37.458Z,91.40
2023-01-19T22:13:06.696Z,91.50
2023-01-19T22:15:34.184Z,91.70
2023-01-19T22:18:01.554Z,91.60
2023-01-19T22:20:28.892Z,91.30
2023-01-19T22:22:56.751Z,91.30
2023-01-19T22:25:27.715Z,91.80
2023-01-19T22:27:55.757Z,92.30
2023-01-19T22:30:23.310Z,92.00
2023-01-19T22:32:50.686Z,91.70
2023-01-19T22:35:18.015Z,91.90
2023-01-19T22:37:45.320Z,91.50
2023-01-19T22:40:13.004Z,91.40
2023-01-19T22:42:40.332Z,91.30
2023-01-19T22:45:08.313Z,91.20
2023-01-19T22:47:35.682Z,90.90
2023-01-19T22:50:03.035Z,91.20
2023-01-19T22:52:30.331Z,91.60
2023-01-19T22:54:58.298Z,91.70
2023-01-19T22:57:25.634Z,91.20
2023-01-19T22:59:52.996Z,90.90
2023-01-19T23:02:21.029Z,91.00
2023-01-19T23:04:48.570Z,91.00
2023-01-19T23:07:15.888Z,90.90
2023-01-19T23:09:43.272Z,91.00
2023-01-19T23:12:10.589Z,91.00
2023-01-19T23:14:38.014Z,91.40
2023-01-19T23:17:05.332Z,91.40
2023-01-19T23:19:32.666Z,91.60
2023-01-19T23:22:00.038Z,91.40
2023-01-19T23:24:27.401Z,91.20
2023-01-19T23:26:54.696Z,91.60
2023-01-19T23:29:22.072Z,91.60
2023-01-19T23:31:49.604Z,91.60
2023-01-19T23:34:17.028Z,92.10
2023-01-19T23:36:44.547Z,92.10
2023-01-19T23:39:16.892Z,92.00
2023-01-19T23:41:44.327Z,91.70
2023-01-19T23:44:11.643Z,91.70
2023-01-19T23:46:39.261Z,91.90
2023-01-19T23:49:06.641Z,92.10
2023-01-19T23:51:34.539Z,92.20
2023-01-19T23:54:01.981Z,92.10
2023-01-19T23:56:33.737Z,91.80
2023-01-19T23:59:08.120Z,91.70
